Portada
METAR-TAF:

METAR-TAF

Aeroports :

Aeroport Internacional El Dorado

Bogotà, Colòmbia

latitud: 04-43N, longitud: 074-09W, altitud: 2547 m

Observació

L'informe es va fer fa 48 minuts, a les 16:00 UTC
Vent 14 kt del Sud-Est
Temperatura 20°C
Humitat 35%
Pressió 1028 hPa
Visibilitat 10 km o més
Escasses núvols a una alçada de 2300 ft

METAR: SKBO 181600Z 14014KT 9999 FEW023 20/04 A3036 NOSIG

Hora: 11:48 (16:48 UTC)

Pronòstic

L'informe es va fer fa 6 hores i 18 minuts, a les 10:30 UTC
Pronòstic vàlid del 18 a les 12 UTC al 19 a les 12 UTC
Vent 5 kt del Nord-Est
Visibilitat 10 km o més
Evolucionant progressivament
l' 18 a les 14 UTC al 18 a les 16 UTC
Vent 12 kt del Sud-Est
Núvols disperses a una alçada de 2500 ft
Evolucionant progressivament
l' 19 a les 02 UTC al 19 a les 04 UTC
Vent 5 kt del Est/Nord-Est

TAF: SKBO 181030Z 1812/1912 04005KT 9999 NSC BECMG 1814/1816 13012KT SCT025 BECMG 1902/1904 06005KT TX21/1818Z TN06/1911Z

Observacions i pronòstics meteorològics de més de 4000 aeroports (METAR i TAF).

Les estacions disponibles són els punts grocs i vermells al mapa.

Posi el ratolí al punt desitjat per veure el nom de l'estació.

Feu clic per veure les observacions i els pronòstics meteorològics.

Per canviar el mapa: feu clic els botons verds amb una creu de color negre per apropar; al botó verd amb un guió per allunyar la imatge; o en les fletxes verdes per a mapes adjacents.


METAR-TAF: